createdAt,value
2019-05-10T00:00:13.182Z,4.30
2019-05-10T00:03:00.275Z,4.47
2019-05-10T00:05:48.490Z,4.83
2019-05-10T00:08:35.714Z,5.17
2019-05-10T00:11:07.729Z,5.17
2019-05-10T00:13:38.863Z,5.10
2019-05-10T00:16:08.694Z,5.30
2019-05-10T00:18:38.021Z,5.63
2019-05-10T00:21:07.422Z,5.23
2019-05-10T00:23:36.768Z,11.23
2019-05-10T00:26:06.101Z,15.93
2019-05-10T00:28:35.446Z,5.93
2019-05-10T00:31:04.774Z,13.47
2019-05-10T00:33:34.117Z,5.50
2019-05-10T00:36:03.461Z,6.90
2019-05-10T00:38:33.116Z,15.93
2019-05-10T00:41:02.447Z,8.10
2019-05-10T00:43:31.786Z,6.47
2019-05-10T00:46:01.121Z,22.40
2019-05-10T00:48:30.451Z,6.33
2019-05-10T00:50:59.784Z,6.60
2019-05-10T00:53:30.010Z,7.60
2019-05-10T00:55:59.336Z,5.43
2019-05-10T00:58:28.677Z,9.77
2019-05-10T01:00:58.046Z,6.30
2019-05-10T01:03:27.375Z,11.10
2019-05-10T01:05:56.686Z,4.60
2019-05-10T01:08:26.013Z,8.17
2019-05-10T01:10:55.355Z,4.43
2019-05-10T01:13:24.958Z,5.77
2019-05-10T01:15:54.299Z,7.93
2019-05-10T01:18:23.627Z,7.53
2019-05-10T01:20:52.954Z,7.33
2019-05-10T01:23:22.296Z,5.00
2019-05-10T01:25:51.615Z,4.93
2019-05-10T01:28:20.952Z,6.00
2019-05-10T01:30:50.543Z,5.10
2019-05-10T01:33:19.888Z,5.40
2019-05-10T01:35:49.227Z,6.27
2019-05-10T01:38:18.553Z,5.20
2019-05-10T01:40:47.891Z,4.83
2019-05-10T01:43:17.216Z,6.57
2019-05-10T01:45:46.550Z,10.67
2019-05-10T01:48:15.886Z,7.00
2019-05-10T01:50:45.795Z,4.93
2019-05-10T01:53:15.128Z,5.23
2019-05-10T01:55:52.102Z,4.80
2019-05-10T01:58:15.572Z,4.83
2019-05-10T02:00:44.904Z,4.63
2019-05-10T02:03:14.260Z,5.70
2019-05-10T02:05:43.596Z,5.00
2019-05-10T02:08:12.932Z,6.47
2019-05-10T02:10:42.266Z,5.40
2019-05-10T02:13:11.601Z,6.10
2019-05-10T02:15:40.927Z,10.10
2019-05-10T02:18:10.264Z,4.80
2019-05-10T02:20:39.590Z,6.33
2019-05-10T02:23:08.932Z,9.77
2019-05-10T02:25:38.261Z,18.20
2019-05-10T02:28:07.615Z,11.60
2019-05-10T02:30:36.952Z,9.53
2019-05-10T02:33:06.275Z,6.47
2019-05-10T02:35:35.542Z,10.90
2019-05-10T02:38:04.865Z,9.10
2019-05-10T02:40:34.192Z,9.17
2019-05-10T02:43:03.521Z,12.10
2019-05-10T02:45:32.861Z,6.17
2019-05-10T02:48:02.479Z,19.53
2019-05-10T02:50:31.819Z,13.70
2019-05-10T02:53:01.149Z,10.30
2019-05-10T02:55:31.056Z,6.43
2019-05-10T02:58:00.797Z,5.80
2019-05-10T03:00:32.044Z,5.67
2019-05-10T03:03:02.890Z,5.33
2019-05-10T03:05:33.769Z,6.33
2019-05-10T03:08:04.813Z,11.10
2019-05-10T03:10:36.313Z,5.77
2019-05-10T03:13:05.636Z,7.80
2019-05-10T03:15:37.986Z,6.30
2019-05-10T03:18:07.444Z,5.90
2019-05-10T03:20:38.469Z,6.10
2019-05-10T03:23:10.201Z,6.53
2019-05-10T03:25:39.536Z,6.20
2019-05-10T03:28:08.868Z,9.30
2019-05-10T03:30:38.182Z,5.53
2019-05-10T03:33:07.543Z,7.20
2019-05-10T03:35:37.049Z,6.07
2019-05-10T03:38:06.466Z,6.43
2019-05-10T03:40:35.934Z,7.97
2019-05-10T03:43:05.338Z,10.50
2019-05-10T03:45:34.679Z,5.97
2019-05-10T03:48:04.017Z,6.30
2019-05-10T03:50:33.283Z,10.80
2019-05-10T03:53:03.020Z,5.87
2019-05-10T03:55:32.905Z,6.13
2019-05-10T03:58:02.228Z,6.40
2019-05-10T04:00:33.104Z,9.93
2019-05-10T04:03:02.436Z,5.60
2019-05-10T04:05:31.686Z,7.73
2019-05-10T04:08:01.041Z,9.80
2019-05-10T04:10:30.356Z,17.63
2019-05-10T04:12:59.701Z,10.83
2019-05-10T04:15:29.287Z,8.27
2019-05-10T04:17:58.617Z,8.43
2019-05-10T04:20:27.953Z,6.83
2019-05-10T04:22:57.281Z,8.80
2019-05-10T04:25:26.620Z,7.03
2019-05-10T04:27:55.955Z,9.70
2019-05-10T04:30:25.296Z,8.67
2019-05-10T04:32:54.628Z,9.33
2019-05-10T04:35:23.966Z,6.90
2019-05-10T04:37:53.388Z,15.63
2019-05-10T04:40:22.718Z,8.33
2019-05-10T04:42:52.043Z,6.57
2019-05-10T04:45:21.381Z,10.00
2019-05-10T04:47:50.715Z,11.07
2019-05-10T04:50:20.066Z,7.80
2019-05-10T04:52:49.380Z,5.90
2019-05-10T04:55:18.713Z,10.00
2019-05-10T04:57:50.942Z,10.83
2019-05-10T05:00:19.459Z,17.07
2019-05-10T05:02:48.813Z,6.67
2019-05-10T05:05:18.134Z,9.77
2019-05-10T05:07:47.462Z,6.87
2019-05-10T05:10:17.067Z,12.10
2019-05-10T05:12:46.397Z,17.57
2019-05-10T05:15:17.612Z,13.83
2019-05-10T05:17:47.320Z,6.70
2019-05-10T05:20:16.739Z,9.93
2019-05-10T05:22:46.072Z,10.83
2019-05-10T05:25:15.469Z,7.00
2019-05-10T05:27:44.805Z,6.70
2019-05-10T05:30:15.054Z,5.93
2019-05-10T05:32:45.782Z,7.70
2019-05-10T05:35:15.670Z,11.60
2019-05-10T05:37:45.006Z,23.70
2019-05-10T05:40:15.182Z,13.13
2019-05-10T05:42:44.515Z,11.17
2019-05-10T05:45:14.096Z,8.90
2019-05-10T05:47:44.860Z,5.87
2019-05-10T05:50:14.607Z,6.70
2019-05-10T05:52:43.937Z,5.80
2019-05-10T05:55:13.397Z,5.10
2019-05-10T05:57:42.731Z,8.53
2019-05-10T06:00:12.577Z,11.77
2019-05-10T06:02:45.111Z,11.40
2019-05-10T06:05:13.019Z,8.40
2019-05-10T06:07:42.360Z,6.50
2019-05-10T06:10:17.328Z,6.13
2019-05-10T06:12:50.357Z,8.00
2019-05-10T06:15:29.272Z,8.47
2019-05-10T06:18:03.588Z,5.87
2019-05-10T06:20:44.272Z,6.50
2019-05-10T06:23:14.888Z,5.30
2019-05-10T06:25:44.245Z,6.07
2019-05-10T06:28:26.527Z,5.50
2019-05-10T06:30:45.095Z,6.97
2019-05-10T06:33:14.655Z,6.33
2019-05-10T06:35:43.990Z,5.43
2019-05-10T06:38:13.335Z,23.33
2019-05-10T06:40:47.365Z,14.87
2019-05-10T06:43:15.625Z,8.30
2019-05-10T06:45:46.849Z,9.57
2019-05-10T06:48:25.772Z,9.90
2019-05-10T06:50:48.125Z,13.30
2019-05-10T06:53:17.453Z,7.30
2019-05-10T06:55:46.785Z,8.33
2019-05-10T06:58:16.106Z,8.17
2019-05-10T07:00:47.545Z,13.03
2019-05-10T07:03:16.469Z,7.00
2019-05-10T07:05:45.873Z,8.93
2019-05-10T07:08:20.108Z,11.17
2019-05-10T07:10:46.244Z,7.53
2019-05-10T07:13:15.566Z,6.70
2019-05-10T07:15:45.009Z,5.57
2019-05-10T07:18:16.701Z,5.97
2019-05-10T07:20:45.331Z,8.20
2019-05-10T07:23:14.678Z,5.93
2019-05-10T07:25:46.629Z,5.60
2019-05-10T07:28:17.282Z,8.73
2019-05-10T07:30:46.344Z,12.27
2019-05-10T07:33:15.681Z,6.73
2019-05-10T07:35:45.088Z,12.80
2019-05-10T07:38:14.471Z,11.87
2019-05-10T07:40:43.784Z,11.07
2019-05-10T07:43:24.823Z,14.33
2019-05-10T07:45:44.176Z,6.97
2019-05-10T07:48:13.494Z,6.07
2019-05-10T07:50:49.705Z,4.60
2019-05-10T07:53:16.245Z,17.37
2019-05-10T07:55:44.887Z,21.90
2019-05-10T07:58:14.227Z,12.60
2019-05-10T08:00:45.071Z,11.37
2019-05-10T08:03:18.840Z,9.30
2019-05-10T08:05:46.257Z,6.63
2019-05-10T08:08:19.005Z,5.73
2019-05-10T08:10:48.806Z,7.83
2019-05-10T08:13:21.266Z,9.20
2019-05-10T08:15:49.331Z,6.33
2019-05-10T08:18:21.115Z,18.67
2019-05-10T08:20:56.676Z,5.97
2019-05-10T08:23:23.697Z,9.60
2019-05-10T08:25:53.358Z,6.47
2019-05-10T08:28:23.048Z,5.67
2019-05-10T08:30:58.797Z,11.03
2019-05-10T08:33:24.995Z,11.07
2019-05-10T08:36:00.794Z,7.40
2019-05-10T08:38:25.347Z,8.40
2019-05-10T08:40:54.935Z,9.40
2019-05-10T08:43:24.596Z,8.30
2019-05-10T08:45:57.427Z,7.20
2019-05-10T08:48:27.600Z,6.77
2019-05-10T08:50:57.545Z,7.47
2019-05-10T08:53:27.238Z,6.93
2019-05-10T08:55:58.775Z,5.07
2019-05-10T08:58:31.334Z,10.33
2019-05-10T09:01:12.074Z,20.83
2019-05-10T09:03:32.099Z,14.13
2019-05-10T09:06:05.295Z,5.40
2019-05-10T09:08:34.607Z,6.23
2019-05-10T09:11:06.626Z,6.87
2019-05-10T09:13:40.710Z,5.20
2019-05-10T09:16:04.919Z,9.33
2019-05-10T09:18:38.058Z,5.53
2019-05-10T09:21:08.732Z,8.30
2019-05-10T09:23:36.303Z,16.63
2019-05-10T09:26:10.237Z,6.97
2019-05-10T09:28:36.668Z,12.47
2019-05-10T09:31:18.929Z,9.90
2019-05-10T09:33:41.026Z,5.20
2019-05-10T09:36:08.066Z,7.27
2019-05-10T09:38:40.404Z,7.37
2019-05-10T09:41:08.420Z,6.00
2019-05-10T09:43:40.542Z,8.20
2019-05-10T09:46:08.782Z,4.47
2019-05-10T09:48:38.111Z,5.67
2019-05-10T09:51:07.444Z,10.80
2019-05-10T09:53:38.294Z,5.27
2019-05-10T09:56:07.984Z,5.93
2019-05-10T09:58:38.665Z,6.90
2019-05-10T10:01:14.748Z,4.97
2019-05-10T10:03:43.215Z,5.27
2019-05-10T10:06:11.357Z,6.43
2019-05-10T10:08:43.329Z,7.33
2019-05-10T10:11:15.878Z,4.60
2019-05-10T10:13:44.150Z,5.73
2019-05-10T10:16:15.003Z,5.23
2019-05-10T10:18:47.464Z,4.87
2019-05-10T10:21:18.934Z,10.70
2019-05-10T10:23:46.773Z,8.13
2019-05-10T10:26:18.562Z,6.10
2019-05-10T10:28:49.776Z,6.80
2019-05-10T10:31:27.027Z,6.10
2019-05-10T10:33:57.979Z,4.87
2019-05-10T10:36:20.195Z,6.63
2019-05-10T10:38:49.903Z,5.70
2019-05-10T10:41:25.946Z,9.53
2019-05-10T10:43:50.474Z,4.67
2019-05-10T10:46:20.037Z,12.83
2019-05-10T10:48:51.493Z,17.53
2019-05-10T10:51:20.536Z,6.43
2019-05-10T10:53:49.914Z,6.00
2019-05-10T10:56:19.238Z,9.30
2019-05-10T10:58:50.121Z,6.70
2019-05-10T11:01:25.211Z,8.33
2019-05-10T11:03:50.599Z,7.00
2019-05-10T11:06:19.941Z,9.63
2019-05-10T11:08:51.703Z,10.03
2019-05-10T11:11:20.304Z,11.37
2019-05-10T11:13:57.968Z,19.13
2019-05-10T11:16:20.827Z,8.93
2019-05-10T11:18:51.963Z,9.83
2019-05-10T11:21:23.426Z,5.53
2019-05-10T11:23:52.470Z,9.90
2019-05-10T11:26:21.856Z,11.83
2019-05-10T11:28:51.476Z,7.50
2019-05-10T11:31:21.444Z,16.00
2019-05-10T11:33:56.099Z,8.30
2019-05-10T11:36:21.859Z,9.93
2019-05-10T11:38:56.596Z,5.07
2019-05-10T11:41:24.636Z,7.67
2019-05-10T11:43:57.946Z,5.23
2019-05-10T11:46:27.831Z,5.97
2019-05-10T11:48:55.311Z,5.00
2019-05-10T11:51:24.630Z,7.40
2019-05-10T11:53:55.390Z,4.70
2019-05-10T11:56:27.762Z,4.50
2019-05-10T11:58:56.040Z,6.03
2019-05-10T12:01:25.366Z,5.07
2019-05-10T12:03:54.693Z,11.87
2019-05-10T12:06:24.012Z,4.97
2019-05-10T12:09:00.811Z,5.07
2019-05-10T12:11:32.480Z,13.07
2019-05-10T12:13:57.541Z,4.90
2019-05-10T12:16:26.414Z,6.47
2019-05-10T12:21:27.515Z,6.87
2019-05-10T12:23:57.053Z,9.70
2019-05-10T12:26:36.094Z,5.17
2019-05-10T12:29:02.576Z,6.17
2019-05-10T12:31:53.361Z,6.43
2019-05-10T12:34:30.998Z,7.63
2019-05-10T12:37:08.240Z,6.00
2019-05-10T12:39:41.367Z,6.30
2019-05-10T12:42:11.342Z,6.00
2019-05-10T12:45:01.291Z,11.23
2019-05-10T12:47:33.654Z,7.03
2019-05-10T12:50:26.221Z,10.10
2019-05-10T12:53:03.616Z,9.17
2019-05-10T12:55:45.678Z,8.03
2019-05-10T12:58:15.001Z,9.13
2019-05-10T13:00:46.335Z,5.67
2019-05-10T13:03:25.176Z,5.20
2019-05-10T13:05:57.485Z,5.83
2019-05-10T13:08:26.817Z,6.47
2019-05-10T13:10:56.147Z,7.23
2019-05-10T13:13:29.743Z,7.30
2019-05-10T13:16:15.615Z,7.87
2019-05-10T13:18:51.725Z,12.40
2019-05-10T13:21:23.188Z,8.67
2019-05-10T13:23:58.016Z,6.23
2019-05-10T13:26:27.350Z,6.00
2019-05-10T13:29:02.084Z,14.20
2019-05-10T13:31:41.840Z,18.00
2019-05-10T13:34:09.956Z,10.53
2019-05-10T13:36:39.367Z,5.60
2019-05-10T13:39:28.040Z,6.90
2019-05-10T13:44:47.747Z,6.70
2019-05-10T13:47:28.874Z,14.97
2019-05-10T13:50:10.482Z,9.03
2019-05-10T13:52:52.420Z,12.10
2019-05-10T13:55:34.087Z,22.93
2019-05-10T13:58:03.433Z,10.23
2019-05-10T14:00:52.113Z,8.80
2019-05-10T14:03:21.459Z,12.10
2019-05-10T14:05:50.795Z,11.60
2019-05-10T14:08:20.131Z,9.77
2019-05-10T14:10:49.911Z,8.70
2019-05-10T14:13:19.268Z,7.17
2019-05-10T14:15:48.610Z,9.80
2019-05-10T14:18:17.941Z,6.13
2019-05-10T14:20:47.268Z,6.40
2019-05-10T14:23:17.982Z,8.90
2019-05-10T14:25:47.415Z,11.83
2019-05-10T14:28:17.473Z,9.43
2019-05-10T14:30:56.669Z,7.53
2019-05-10T14:33:17.901Z,9.00
2019-05-10T14:35:47.505Z,9.27
2019-05-10T14:38:16.838Z,8.40
2019-05-10T14:40:46.195Z,11.03
2019-05-10T14:43:15.500Z,8.33
2019-05-10T14:45:45.207Z,11.23
2019-05-10T14:48:14.538Z,6.00
2019-05-10T14:50:46.649Z,5.73
2019-05-10T14:53:19.972Z,7.20
2019-05-10T14:55:46.187Z,10.87
2019-05-10T14:58:15.526Z,9.33
2019-05-10T15:00:44.850Z,9.30
2019-05-10T15:03:14.195Z,11.57
2019-05-10T15:05:43.525Z,6.53
2019-05-10T15:08:12.842Z,5.83
2019-05-10T15:10:42.197Z,5.73
2019-05-10T15:13:11.518Z,9.73
2019-05-10T15:15:40.869Z,15.17
2019-05-10T15:18:10.183Z,5.43
2019-05-10T15:20:39.506Z,5.30
2019-05-10T15:23:08.841Z,7.40
2019-05-10T15:25:38.162Z,5.67
2019-05-10T15:28:07.491Z,5.10
2019-05-10T15:30:42.906Z,5.47
2019-05-10T15:33:07.905Z,7.13
2019-05-10T15:35:37.238Z,10.90
2019-05-10T15:38:06.558Z,8.20
2019-05-10T15:40:38.836Z,5.70
2019-05-10T15:43:10.633Z,6.83
2019-05-10T15:45:38.223Z,5.83
2019-05-10T15:48:07.547Z,5.50
2019-05-10T15:50:38.633Z,5.03
2019-05-10T15:53:08.014Z,5.40
2019-05-10T15:55:37.332Z,6.43
2019-05-10T15:58:06.661Z,5.30
2019-05-10T16:00:39.293Z,5.03
2019-05-10T16:03:07.044Z,6.57
2019-05-10T16:05:43.597Z,10.17
2019-05-10T16:08:07.403Z,5.57
2019-05-10T16:10:39.458Z,5.43
2019-05-10T16:13:07.787Z,5.07
2019-05-10T16:15:37.111Z,5.20
2019-05-10T16:18:06.436Z,5.13
2019-05-10T16:20:37.097Z,6.03
2019-05-10T16:23:08.844Z,7.90
2019-05-10T16:25:41.985Z,6.00
2019-05-10T16:28:08.805Z,9.93
2019-05-10T16:30:38.485Z,5.93
2019-05-10T16:33:09.879Z,6.53
2019-05-10T16:35:39.297Z,7.73
2019-05-10T16:38:08.663Z,5.47
2019-05-10T16:40:38.005Z,6.17
2019-05-10T16:43:13.502Z,8.00
2019-05-10T16:45:38.673Z,10.67
2019-05-10T16:48:08.078Z,6.10
2019-05-10T16:50:37.321Z,5.60
2019-05-10T16:53:08.195Z,6.40
2019-05-10T16:55:40.675Z,10.77
2019-05-10T16:58:09.467Z,6.13
2019-05-10T17:00:40.661Z,7.13
2019-05-10T17:03:13.110Z,5.60
2019-05-10T17:05:53.115Z,7.37
2019-05-10T17:08:12.863Z,13.03
2019-05-10T17:10:42.192Z,6.03
2019-05-10T17:13:13.768Z,8.33
2019-05-10T17:15:43.496Z,10.03
2019-05-10T17:18:17.682Z,6.07
2019-05-10T17:20:45.458Z,7.47
2019-05-10T17:23:15.182Z,5.60
2019-05-10T17:25:44.755Z,18.83
2019-05-10T17:28:14.099Z,6.07
2019-05-10T17:30:44.910Z,5.67
2019-05-10T17:33:14.339Z,6.60
2019-05-10T17:35:44.217Z,13.67
2019-05-10T17:38:14.802Z,6.50
2019-05-10T17:40:47.780Z,9.77
2019-05-10T17:43:20.791Z,6.00
2019-05-10T17:45:47.387Z,13.17
2019-05-10T17:48:16.722Z,5.50
2019-05-10T17:51:04.801Z,6.50
2019-05-10T17:53:34.597Z,6.50
2019-05-10T17:56:04.050Z,6.90
2019-05-10T17:58:34.877Z,5.83
2019-05-10T18:01:04.304Z,6.20
2019-05-10T18:03:33.626Z,8.97
2019-05-10T18:06:03.253Z,5.60
2019-05-10T18:08:32.588Z,6.03
2019-05-10T18:11:03.965Z,6.00
2019-05-10T18:13:35.676Z,12.43
2019-05-10T18:16:04.509Z,7.63
2019-05-10T18:18:42.784Z,6.60
2019-05-10T18:21:07.057Z,10.77
2019-05-10T18:23:36.406Z,6.10
2019-05-10T18:26:05.795Z,9.50
2019-05-10T18:28:35.141Z,6.93
2019-05-10T18:31:04.515Z,7.93
2019-05-10T18:33:33.829Z,7.80
2019-05-10T18:36:03.175Z,7.03
2019-05-10T18:38:37.225Z,9.60
2019-05-10T18:41:05.496Z,8.43
2019-05-10T18:43:35.378Z,10.60
2019-05-10T18:46:05.617Z,10.53
2019-05-10T18:48:34.947Z,9.50
2019-05-10T18:51:04.518Z,15.07
2019-05-10T18:53:34.123Z,10.63
2019-05-10T18:56:03.462Z,13.10
2019-05-10T18:58:32.862Z,15.97
2019-05-10T19:01:02.575Z,12.67
2019-05-10T19:03:33.822Z,11.87
2019-05-10T19:06:10.750Z,8.33
2019-05-10T19:08:34.082Z,10.47
2019-05-10T19:11:04.381Z,12.03
2019-05-10T19:13:40.219Z,12.00
2019-05-10T19:16:05.152Z,15.40
2019-05-10T19:18:34.483Z,15.50
2019-05-10T19:21:03.893Z,13.47
2019-05-10T19:23:33.234Z,12.57
2019-05-10T19:26:02.569Z,10.20
2019-05-10T19:28:31.907Z,9.00
2019-05-10T19:31:02.012Z,10.73
2019-05-10T19:33:36.371Z,13.90
2019-05-10T19:36:02.683Z,14.90
2019-05-10T19:38:32.011Z,15.13
2019-05-10T19:41:01.359Z,12.00
2019-05-10T19:43:30.687Z,9.90
2019-05-10T19:46:00.031Z,12.03
2019-05-10T19:48:35.109Z,21.93
2019-05-10T19:51:02.815Z,13.13
2019-05-10T19:53:31.445Z,22.13
2019-05-10T19:56:03.974Z,23.83
2019-05-10T19:58:33.911Z,33.33
2019-05-10T20:01:03.394Z,27.87
2019-05-10T20:03:32.967Z,23.80
2019-05-10T20:06:02.306Z,27.80
2019-05-10T20:08:31.661Z,22.63
2019-05-10T20:11:00.993Z,20.33
2019-05-10T20:13:30.345Z,17.90
2019-05-10T20:16:01.377Z,14.30
2019-05-10T20:18:30.900Z,11.60
2019-05-10T20:21:00.229Z,12.43
2019-05-10T20:23:29.566Z,11.33
2019-05-10T20:25:59.528Z,11.00
2019-05-10T20:28:28.879Z,10.97
2019-05-10T20:30:58.216Z,10.30
2019-05-10T20:33:27.547Z,13.83
2019-05-10T20:35:56.888Z,10.87
2019-05-10T20:38:26.230Z,11.87
2019-05-10T20:40:55.565Z,10.17
2019-05-10T20:43:24.914Z,18.90
2019-05-10T20:45:54.287Z,19.40
2019-05-10T20:48:23.580Z,12.47
2019-05-10T20:50:52.929Z,16.00
2019-05-10T20:53:22.358Z,15.20
2019-05-10T20:55:51.709Z,45.33
2019-05-10T20:58:21.048Z,43.63
2019-05-10T21:00:50.397Z,51.47
2019-05-10T21:03:19.763Z,39.87
2019-05-10T21:05:49.095Z,19.43
2019-05-10T21:08:18.443Z,17.50
2019-05-10T21:10:47.771Z,11.60
2019-05-10T21:13:17.109Z,15.13
2019-05-10T21:15:46.457Z,15.47
2019-05-10T21:18:15.807Z,10.93
2019-05-10T21:20:45.163Z,20.03
2019-05-10T21:23:14.496Z,13.53
2019-05-10T21:25:43.828Z,23.23
2019-05-10T21:28:13.178Z,13.77
2019-05-10T21:30:42.532Z,20.97
2019-05-10T21:33:11.891Z,13.40
2019-05-10T21:35:41.208Z,15.30
2019-05-10T21:38:10.546Z,13.10
2019-05-10T21:40:40.129Z,21.70
2019-05-10T21:43:09.470Z,17.80
2019-05-10T21:45:38.824Z,17.83
2019-05-10T21:48:08.157Z,19.50
2019-05-10T21:50:37.502Z,17.27
2019-05-10T21:53:06.988Z,16.27
2019-05-10T21:55:36.327Z,17.83
2019-05-10T21:58:05.679Z,19.60
2019-05-10T22:00:39.601Z,18.83
2019-05-10T22:03:09.216Z,19.47
2019-05-10T22:05:38.741Z,19.03
2019-05-10T22:08:08.078Z,29.33
2019-05-10T22:10:37.423Z,20.50
2019-05-10T22:13:06.768Z,25.03
2019-05-10T22:15:36.123Z,16.33
2019-05-10T22:18:05.551Z,16.90
2019-05-10T22:20:34.893Z,16.67
2019-05-10T22:23:04.240Z,19.10
2019-05-10T22:25:33.572Z,13.50
2019-05-10T22:28:02.966Z,13.20
2019-05-10T22:30:32.255Z,16.10
2019-05-10T22:33:01.589Z,16.97
2019-05-10T22:35:30.939Z,18.43
2019-05-10T22:38:00.280Z,20.40
2019-05-10T22:40:29.706Z,15.13
2019-05-10T22:42:59.064Z,14.70
2019-05-10T22:45:28.644Z,14.47
2019-05-10T22:47:57.993Z,17.37
2019-05-10T22:50:27.333Z,20.23
2019-05-10T22:52:56.697Z,17.03
2019-05-10T22:55:26.032Z,15.70
2019-05-10T22:57:55.368Z,15.23
2019-05-10T23:00:24.849Z,13.40
2019-05-10T23:02:54.183Z,15.17
2019-05-10T23:05:23.536Z,11.90
2019-05-10T23:07:52.957Z,11.93
2019-05-10T23:10:22.278Z,17.87
2019-05-10T23:12:51.625Z,18.47
2019-05-10T23:15:20.966Z,16.90
2019-05-10T23:17:50.315Z,18.00
2019-05-10T23:20:19.718Z,25.03
2019-05-10T23:22:49.053Z,22.20
2019-05-10T23:25:18.433Z,15.00
2019-05-10T23:27:47.753Z,24.13
2019-05-10T23:30:17.303Z,16.03
2019-05-10T23:32:46.640Z,15.73
2019-05-10T23:35:15.981Z,20.40
2019-05-10T23:37:45.322Z,17.67
2019-05-10T23:40:14.930Z,16.33
2019-05-10T23:42:44.290Z,16.63
2019-05-10T23:45:13.697Z,16.93
2019-05-10T23:47:43.038Z,21.17
2019-05-10T23:50:12.719Z,22.90
2019-05-10T23:52:42.056Z,20.00
2019-05-10T23:55:11.573Z,17.90
2019-05-10T23:57:40.899Z,20.67
